sensor_id;sensor_type;location;lat;lon;timestamp;temperature;humidity
68943;DHT22;60852;52.190;4.422;2023-05-24T00:01:16;11.40;73.45
68943;DHT22;60852;52.190;4.422;2023-05-24T00:03:53;11.37;73.62
68943;DHT22;60852;52.190;4.422;2023-05-24T00:06:23;11.34;73.51
68943;DHT22;60852;52.190;4.422;2023-05-24T00:08:51;11.33;73.55
68943;DHT22;60852;52.190;4.422;2023-05-24T00:11:16;11.31;73.70
68943;DHT22;60852;52.190;4.422;2023-05-24T00:13:42;11.33;73.39
68943;DHT22;60852;52.190;4.422;2023-05-24T00:16:07;11.29;73.52
68943;DHT22;60852;52.190;4.422;2023-05-24T00:18:33;11.29;73.41
68943;DHT22;60852;52.190;4.422;2023-05-24T00:20:58;11.26;73.28
68943;DHT22;60852;52.190;4.422;2023-05-24T00:23:25;11.20;73.28
68943;DHT22;60852;52.190;4.422;2023-05-24T00:25:51;11.18;73.28
68943;DHT22;60852;52.190;4.422;2023-05-24T00:28:16;11.15;73.07
68943;DHT22;60852;52.190;4.422;2023-05-24T00:30:42;11.06;73.15
68943;DHT22;60852;52.190;4.422;2023-05-24T00:33:08;10.93;73.25
68943;DHT22;60852;52.190;4.422;2023-05-24T00:35:33;10.85;73.77
68943;DHT22;60852;52.190;4.422;2023-05-24T00:37:59;10.81;74.11
68943;DHT22;60852;52.190;4.422;2023-05-24T00:40:24;10.76;74.31
68943;DHT22;60852;52.190;4.422;2023-05-24T00:42:50;10.75;74.31
68943;DHT22;60852;52.190;4.422;2023-05-24T00:45:16;10.71;74.48
68943;DHT22;60852;52.190;4.422;2023-05-24T00:47:41;10.71;74.70
68943;DHT22;60852;52.190;4.422;2023-05-24T00:50:08;10.73;74.68
68943;DHT22;60852;52.190;4.422;2023-05-24T00:52:36;10.81;74.57
68943;DHT22;60852;52.190;4.422;2023-05-24T00:55:02;10.83;74.29
68943;DHT22;60852;52.190;4.422;2023-05-24T00:57:28;10.83;73.93
68943;DHT22;60852;52.190;4.422;2023-05-24T00:59:54;10.82;73.72
68943;DHT22;60852;52.190;4.422;2023-05-24T01:02:20;10.81;73.78
68943;DHT22;60852;52.190;4.422;2023-05-24T01:04:46;10.82;73.89
68943;DHT22;60852;52.190;4.422;2023-05-24T01:10:16;10.79;73.54
68943;DHT22;60852;52.190;4.422;2023-05-24T01:15:58;10.73;74.27
68943;DHT22;60852;52.190;4.422;2023-05-24T01:18:30;10.76;74.38
68943;DHT22;60852;52.190;4.422;2023-05-24T01:21:15;10.82;74.42
68943;DHT22;60852;52.190;4.422;2023-05-24T01:26:36;10.95;74.09
68943;DHT22;60852;52.190;4.422;2023-05-24T01:29:05;10.96;74.25
68943;DHT22;60852;52.190;4.422;2023-05-24T01:31:33;10.98;74.43
68943;DHT22;60852;52.190;4.422;2023-05-24T01:33:59;10.99;74.58
68943;DHT22;60852;52.190;4.422;2023-05-24T01:36:25;11.06;75.23
68943;DHT22;60852;52.190;4.422;2023-05-24T01:38:51;11.18;75.47
68943;DHT22;60852;52.190;4.422;2023-05-24T01:41:37;11.30;75.57
68943;DHT22;60852;52.190;4.422;2023-05-24T01:44:33;11.37;75.63
68943;DHT22;60852;52.190;4.422;2023-05-24T01:49:55;11.51;75.63
68943;DHT22;60852;52.190;4.422;2023-05-24T01:52:27;11.57;75.49
68943;DHT22;60852;52.190;4.422;2023-05-24T01:54:57;11.59;75.42
68943;DHT22;60852;52.190;4.422;2023-05-24T01:57:25;11.59;75.44
68943;DHT22;60852;52.190;4.422;2023-05-24T01:59:53;11.59;75.48
68943;DHT22;60852;52.190;4.422;2023-05-24T02:02:19;11.64;75.34
68943;DHT22;60852;52.190;4.422;2023-05-24T02:04:44;11.67;75.14
68943;DHT22;60852;52.190;4.422;2023-05-24T02:07:10;11.73;74.93
68943;DHT22;60852;52.190;4.422;2023-05-24T02:09:36;11.74;74.94
68943;DHT22;60852;52.190;4.422;2023-05-24T02:12:01;11.78;74.79
68943;DHT22;60852;52.190;4.422;2023-05-24T02:14:27;11.81;74.75
68943;DHT22;60852;52.190;4.422;2023-05-24T02:16:52;11.81;74.78
68943;DHT22;60852;52.190;4.422;2023-05-24T02:19:25;11.78;74.90
68943;DHT22;60852;52.190;4.422;2023-05-24T02:21:51;11.84;74.72
68943;DHT22;60852;52.190;4.422;2023-05-24T02:24:17;11.81;74.67
68943;DHT22;60852;52.190;4.422;2023-05-24T02:26:43;11.80;74.63
68943;DHT22;60852;52.190;4.422;2023-05-24T02:29:09;11.80;74.66
68943;DHT22;60852;52.190;4.422;2023-05-24T02:31:35;11.82;74.68
68943;DHT22;60852;52.190;4.422;2023-05-24T02:34:00;11.75;74.85
68943;DHT22;60852;52.190;4.422;2023-05-24T02:36:26;11.80;74.83
68943;DHT22;60852;52.190;4.422;2023-05-24T02:38:52;11.81;74.74
68943;DHT22;60852;52.190;4.422;2023-05-24T02:41:18;11.80;74.90
68943;DHT22;60852;52.190;4.422;2023-05-24T02:43:47;11.81;75.01
68943;DHT22;60852;52.190;4.422;2023-05-24T02:46:13;11.77;75.14
68943;DHT22;60852;52.190;4.422;2023-05-24T02:48:39;11.78;75.38
68943;DHT22;60852;52.190;4.422;2023-05-24T02:51:04;11.80;75.29
68943;DHT22;60852;52.190;4.422;2023-05-24T02:53:30;11.77;75.23
68943;DHT22;60852;52.190;4.422;2023-05-24T02:55:57;11.78;75.18
68943;DHT22;60852;52.190;4.422;2023-05-24T02:58:23;11.80;75.26
68943;DHT22;60852;52.190;4.422;2023-05-24T03:00:48;11.82;75.31
68943;DHT22;60852;52.190;4.422;2023-05-24T03:03:14;11.87;75.20
68943;DHT22;60852;52.190;4.422;2023-05-24T03:05:41;11.91;75.09
68943;DHT22;60852;52.190;4.422;2023-05-24T03:08:06;11.90;75.14
68943;DHT22;60852;52.190;4.422;2023-05-24T03:10:32;11.90;75.05
68943;DHT22;60852;52.190;4.422;2023-05-24T03:12:57;11.91;75.09
68943;DHT22;60852;52.190;4.422;2023-05-24T03:15:23;11.90;75.26
68943;DHT22;60852;52.190;4.422;2023-05-24T03:17:48;11.91;74.95
68943;DHT22;60852;52.190;4.422;2023-05-24T03:20:14;11.92;75.14
68943;DHT22;60852;52.190;4.422;2023-05-24T03:22:40;11.92;75.15
68943;DHT22;60852;52.190;4.422;2023-05-24T03:25:06;11.92;75.23
68943;DHT22;60852;52.190;4.422;2023-05-24T03:27:33;11.95;75.11
68943;DHT22;60852;52.190;4.422;2023-05-24T03:29:59;11.99;74.96
68943;DHT22;60852;52.190;4.422;2023-05-24T03:32:24;11.98;74.86
68943;DHT22;60852;52.190;4.422;2023-05-24T03:34:50;11.99;75.02
68943;DHT22;60852;52.190;4.422;2023-05-24T03:37:15;11.99;74.85
68943;DHT22;60852;52.190;4.422;2023-05-24T03:39:41;12.01;75.24
68943;DHT22;60852;52.190;4.422;2023-05-24T03:42:06;11.98;75.17
68943;DHT22;60852;52.190;4.422;2023-05-24T03:44:32;11.98;75.30
68943;DHT22;60852;52.190;4.422;2023-05-24T03:46:57;12.01;75.28
68943;DHT22;60852;52.190;4.422;2023-05-24T03:49:23;11.99;75.17
68943;DHT22;60852;52.190;4.422;2023-05-24T03:51:48;12.04;75.15
68943;DHT22;60852;52.190;4.422;2023-05-24T03:54:14;12.01;75.14
68943;DHT22;60852;52.190;4.422;2023-05-24T03:56:40;11.99;75.06
68943;DHT22;60852;52.190;4.422;2023-05-24T03:59:05;12.02;75.20
68943;DHT22;60852;52.190;4.422;2023-05-24T04:01:31;12.01;75.34
68943;DHT22;60852;52.190;4.422;2023-05-24T04:03:57;12.08;75.23
68943;DHT22;60852;52.190;4.422;2023-05-24T04:06:23;12.12;75.00
68943;DHT22;60852;52.190;4.422;2023-05-24T04:08:57;12.21;74.98
68943;DHT22;60852;52.190;4.422;2023-05-24T04:11:23;12.19;75.08
68943;DHT22;60852;52.190;4.422;2023-05-24T04:13:53;12.28;75.06
68943;DHT22;60852;52.190;4.422;2023-05-24T04:16:21;12.35;74.80
68943;DHT22;60852;52.190;4.422;2023-05-24T04:18:49;12.55;74.66
68943;DHT22;60852;52.190;4.422;2023-05-24T04:21:15;12.80;73.99
68943;DHT22;60852;52.190;4.422;2023-05-24T04:23:41;13.03;73.14
68943;DHT22;60852;52.190;4.422;2023-05-24T04:26:06;13.11;73.01
68943;DHT22;60852;52.190;4.422;2023-05-24T04:28:35;13.17;73.00
68943;DHT22;60852;52.190;4.422;2023-05-24T04:31:03;13.15;72.64
68943;DHT22;60852;52.190;4.422;2023-05-24T04:33:31;13.15;72.76
68943;DHT22;60852;52.190;4.422;2023-05-24T04:35:56;13.22;72.88
68943;DHT22;60852;52.190;4.422;2023-05-24T04:38:25;13.24;72.68
68943;DHT22;60852;52.190;4.422;2023-05-24T04:40:54;13.34;72.63
68943;DHT22;60852;52.190;4.422;2023-05-24T04:43:21;13.32;72.40
68943;DHT22;60852;52.190;4.422;2023-05-24T04:45:47;13.39;72.52
68943;DHT22;60852;52.190;4.422;2023-05-24T04:48:12;13.38;72.20
68943;DHT22;60852;52.190;4.422;2023-05-24T04:50:38;13.39;72.04
68943;DHT22;60852;52.190;4.422;2023-05-24T04:53:04;13.35;71.78
68943;DHT22;60852;52.190;4.422;2023-05-24T04:55:30;13.37;71.88
68943;DHT22;60852;52.190;4.422;2023-05-24T04:57:55;13.48;71.66
68943;DHT22;60852;52.190;4.422;2023-05-24T05:00:21;13.72;71.24
68943;DHT22;60852;52.190;4.422;2023-05-24T05:02:47;13.97;70.19
68943;DHT22;60852;52.190;4.422;2023-05-24T05:05:12;14.12;69.65
68943;DHT22;60852;52.190;4.422;2023-05-24T05:07:38;14.23;68.40
68943;DHT22;60852;52.190;4.422;2023-05-24T05:10:05;14.03;69.55
68943;DHT22;60852;52.190;4.422;2023-05-24T05:12:31;14.98;68.07
68943;DHT22;60852;52.190;4.422;2023-05-24T05:14:56;15.39;66.15
68943;DHT22;60852;52.190;4.422;2023-05-24T05:17:22;15.30;65.85
68943;DHT22;60852;52.190;4.422;2023-05-24T05:19:47;15.23;65.93
68943;DHT22;60852;52.190;4.422;2023-05-24T05:22:13;14.89;67.17
68943;DHT22;60852;52.190;4.422;2023-05-24T05:24:38;14.67;67.82
68943;DHT22;60852;52.190;4.422;2023-05-24T05:27:04;14.54;68.07
68943;DHT22;60852;52.190;4.422;2023-05-24T05:29:30;14.54;68.47
68943;DHT22;60852;52.190;4.422;2023-05-24T05:31:55;14.51;68.09
68943;DHT22;60852;52.190;4.422;2023-05-24T05:34:21;14.54;68.04
68943;DHT22;60852;52.190;4.422;2023-05-24T05:36:46;14.45;68.22
68943;DHT22;60852;52.190;4.422;2023-05-24T05:39:12;14.31;69.00
68943;DHT22;60852;52.190;4.422;2023-05-24T05:41:39;14.23;69.64
68943;DHT22;60852;52.190;4.422;2023-05-24T05:44:06;14.24;69.19
68943;DHT22;60852;52.190;4.422;2023-05-24T05:46:32;14.20;69.44
68943;DHT22;60852;52.190;4.422;2023-05-24T05:48:57;14.16;68.98
68943;DHT22;60852;52.190;4.422;2023-05-24T05:51:23;14.95;67.81
68943;DHT22;60852;52.190;4.422;2023-05-24T05:53:48;14.85;66.23
68943;DHT22;60852;52.190;4.422;2023-05-24T05:56:14;14.40;67.81
68943;DHT22;60852;52.190;4.422;2023-05-24T05:58:40;14.05;67.90
68943;DHT22;60852;52.190;4.422;2023-05-24T06:01:06;13.95;68.65
68943;DHT22;60852;52.190;4.422;2023-05-24T06:03:31;13.86;68.46
68943;DHT22;60852;52.190;4.422;2023-05-24T06:05:57;13.89;68.30
68943;DHT22;60852;52.190;4.422;2023-05-24T06:08:22;13.97;68.70
68943;DHT22;60852;52.190;4.422;2023-05-24T06:10:48;14.05;68.37
68943;DHT22;60852;52.190;4.422;2023-05-24T06:13:13;14.00;67.91
68943;DHT22;60852;52.190;4.422;2023-05-24T06:15:38;14.02;67.98
68943;DHT22;60852;52.190;4.422;2023-05-24T06:18:04;13.99;68.31
68943;DHT22;60852;52.190;4.422;2023-05-24T06:20:30;14.05;68.49
68943;DHT22;60852;52.190;4.422;2023-05-24T06:22:55;14.12;68.54
68943;DHT22;60852;52.190;4.422;2023-05-24T06:25:21;14.24;68.34
68943;DHT22;60852;52.190;4.422;2023-05-24T06:27:49;14.23;68.37
68943;DHT22;60852;52.190;4.422;2023-05-24T06:30:16;14.10;67.69
68943;DHT22;60852;52.190;4.422;2023-05-24T06:32:41;14.03;67.28
68943;DHT22;60852;52.190;4.422;2023-05-24T06:35:07;13.96;67.66
68943;DHT22;60852;52.190;4.422;2023-05-24T06:37:33;13.95;67.54
68943;DHT22;60852;52.190;4.422;2023-05-24T06:39:58;13.89;68.10
68943;DHT22;60852;52.190;4.422;2023-05-24T06:42:24;13.89;69.00
68943;DHT22;60852;52.190;4.422;2023-05-24T06:44:49;14.03;69.38
68943;DHT22;60852;52.190;4.422;2023-05-24T06:47:15;14.23;68.24
68943;DHT22;60852;52.190;4.422;2023-05-24T06:49:40;14.40;67.96
68943;DHT22;60852;52.190;4.422;2023-05-24T06:52:06;14.52;66.89
68943;DHT22;60852;52.190;4.422;2023-05-24T06:54:32;14.45;67.08
68943;DHT22;60852;52.190;4.422;2023-05-24T06:56:58;14.34;67.31
68943;DHT22;60852;52.190;4.422;2023-05-24T06:59:24;14.37;66.96
68943;DHT22;60852;52.190;4.422;2023-05-24T07:01:50;14.41;66.92
68943;DHT22;60852;52.190;4.422;2023-05-24T07:04:21;14.47;66.85
68943;DHT22;60852;52.190;4.422;2023-05-24T07:06:47;14.44;66.91
68943;DHT22;60852;52.190;4.422;2023-05-24T07:09:12;14.67;66.91
68943;DHT22;60852;52.190;4.422;2023-05-24T07:11:39;15.02;66.17
68943;DHT22;60852;52.190;4.422;2023-05-24T07:14:05;15.03;64.75
68943;DHT22;60852;52.190;4.422;2023-05-24T07:16:30;15.10;64.66
68943;DHT22;60852;52.190;4.422;2023-05-24T07:18:56;15.06;64.94
68943;DHT22;60852;52.190;4.422;2023-05-24T07:21:22;14.81;65.71
68943;DHT22;60852;52.190;4.422;2023-05-24T07:23:51;14.74;66.51
68943;DHT22;60852;52.190;4.422;2023-05-24T07:26:17;14.79;66.61
68943;DHT22;60852;52.190;4.422;2023-05-24T07:28:42;14.72;65.89
68943;DHT22;60852;52.190;4.422;2023-05-24T07:31:08;14.74;66.37
68943;DHT22;60852;52.190;4.422;2023-05-24T07:33:37;14.88;65.97
68943;DHT22;60852;52.190;4.422;2023-05-24T07:36:06;14.88;66.41
68943;DHT22;60852;52.190;4.422;2023-05-24T07:38:33;15.03;65.99
68943;DHT22;60852;52.190;4.422;2023-05-24T07:41:02;15.27;65.28
68943;DHT22;60852;52.190;4.422;2023-05-24T07:43:28;15.43;64.93
68943;DHT22;60852;52.190;4.422;2023-05-24T07:45:54;15.39;64.54
68943;DHT22;60852;52.190;4.422;2023-05-24T07:48:20;15.20;65.34
68943;DHT22;60852;52.190;4.422;2023-05-24T07:50:47;15.16;65.32
68943;DHT22;60852;52.190;4.422;2023-05-24T07:53:16;14.88;65.64
68943;DHT22;60852;52.190;4.422;2023-05-24T07:55:41;14.81;65.96
68943;DHT22;60852;52.190;4.422;2023-05-24T07:58:09;14.89;66.00
68943;DHT22;60852;52.190;4.422;2023-05-24T08:00:34;14.86;65.71
68943;DHT22;60852;52.190;4.422;2023-05-24T08:03:00;14.76;66.95
68943;DHT22;60852;52.190;4.422;2023-05-24T08:05:25;14.79;66.15
68943;DHT22;60852;52.190;4.422;2023-05-24T08:07:51;14.84;66.16
68943;DHT22;60852;52.190;4.422;2023-05-24T08:10:17;14.92;66.44
68943;DHT22;60852;52.190;4.422;2023-05-24T08:12:43;14.99;66.21
68943;DHT22;60852;52.190;4.422;2023-05-24T08:15:09;14.93;64.90
68943;DHT22;60852;52.190;4.422;2023-05-24T08:17:36;14.92;64.88
68943;DHT22;60852;52.190;4.422;2023-05-24T08:20:02;14.86;63.86
68943;DHT22;60852;52.190;4.422;2023-05-24T08:22:33;14.71;65.93
68943;DHT22;60852;52.190;4.422;2023-05-24T08:24:58;14.74;66.09
68943;DHT22;60852;52.190;4.422;2023-05-24T08:27:23;14.82;66.20
68943;DHT22;60852;52.190;4.422;2023-05-24T08:29:49;14.88;65.73
68943;DHT22;60852;52.190;4.422;2023-05-24T08:32:14;14.99;66.04
68943;DHT22;60852;52.190;4.422;2023-05-24T08:34:40;15.02;65.62
68943;DHT22;60852;52.190;4.422;2023-05-24T08:37:05;15.03;65.38
68943;DHT22;60852;52.190;4.422;2023-05-24T08:39:31;14.76;64.61
68943;DHT22;60852;52.190;4.422;2023-05-24T08:41:57;14.67;66.10
68943;DHT22;60852;52.190;4.422;2023-05-24T08:44:25;14.74;67.07
68943;DHT22;60852;52.190;4.422;2023-05-24T08:46:56;14.91;66.22
68943;DHT22;60852;52.190;4.422;2023-05-24T08:49:23;14.91;65.09
68943;DHT22;60852;52.190;4.422;2023-05-24T08:51:50;14.96;65.79
68943;DHT22;60852;52.190;4.422;2023-05-24T08:54:18;15.00;65.33
68943;DHT22;60852;52.190;4.422;2023-05-24T08:56:44;15.06;65.39
68943;DHT22;60852;52.190;4.422;2023-05-24T08:59:10;15.06;65.55
68943;DHT22;60852;52.190;4.422;2023-05-24T09:01:39;15.07;65.71
68943;DHT22;60852;52.190;4.422;2023-05-24T09:04:06;15.02;63.76
68943;DHT22;60852;52.190;4.422;2023-05-24T09:06:32;15.00;64.58
68943;DHT22;60852;52.190;4.422;2023-05-24T09:08:59;14.98;64.64
68943;DHT22;60852;52.190;4.422;2023-05-24T09:11:26;15.05;65.49
68943;DHT22;60852;52.190;4.422;2023-05-24T09:13:54;15.10;65.14
68943;DHT22;60852;52.190;4.422;2023-05-24T09:16:20;15.03;65.16
68943;DHT22;60852;52.190;4.422;2023-05-24T09:18:46;15.09;65.82
68943;DHT22;60852;52.190;4.422;2023-05-24T09:21:12;15.16;64.37
68943;DHT22;60852;52.190;4.422;2023-05-24T09:23:39;15.20;63.73
68943;DHT22;60852;52.190;4.422;2023-05-24T09:26:09;15.29;64.40
68943;DHT22;60852;52.190;4.422;2023-05-24T09:28:36;15.34;63.50
68943;DHT22;60852;52.190;4.422;2023-05-24T09:31:02;15.29;63.09
68943;DHT22;60852;52.190;4.422;2023-05-24T09:33:29;15.27;64.26
68943;DHT22;60852;52.190;4.422;2023-05-24T09:36:01;15.26;65.10
68943;DHT22;60852;52.190;4.422;2023-05-24T09:38:27;15.27;64.58
68943;DHT22;60852;52.190;4.422;2023-05-24T09:41:20;15.30;63.47
68943;DHT22;60852;52.190;4.422;2023-05-24T09:43:48;15.32;64.24
68943;DHT22;60852;52.190;4.422;2023-05-24T09:46:17;15.20;63.62
68943;DHT22;60852;52.190;4.422;2023-05-24T09:48:59;15.23;64.19
68943;DHT22;60852;52.190;4.422;2023-05-24T09:51:28;15.25;64.04
68943;DHT22;60852;52.190;4.422;2023-05-24T09:54:00;15.50;63.67
68943;DHT22;60852;52.190;4.422;2023-05-24T09:56:26;16.39;62.33
68943;DHT22;60852;52.190;4.422;2023-05-24T09:58:52;17.07;60.56
68943;DHT22;60852;52.190;4.422;2023-05-24T10:01:23;17.45;57.79
68943;DHT22;60852;52.190;4.422;2023-05-24T10:03:58;17.49;57.15
68943;DHT22;60852;52.190;4.422;2023-05-24T10:06:26;17.71;56.74
68943;DHT22;60852;52.190;4.422;2023-05-24T10:08:54;18.04;55.92
68943;DHT22;60852;52.190;4.422;2023-05-24T10:11:21;18.40;56.09
68943;DHT22;60852;52.190;4.422;2023-05-24T10:13:48;18.48;55.30
68943;DHT22;60852;52.190;4.422;2023-05-24T10:16:14;18.71;55.33
68943;DHT22;60852;52.190;4.422;2023-05-24T10:18:40;18.82;54.01
68943;DHT22;60852;52.190;4.422;2023-05-24T10:21:06;18.62;52.37
68943;DHT22;60852;52.190;4.422;2023-05-24T10:23:37;18.79;53.18
68943;DHT22;60852;52.190;4.422;2023-05-24T10:26:07;18.92;52.52
68943;DHT22;60852;52.190;4.422;2023-05-24T10:28:39;18.72;53.00
68943;DHT22;60852;52.190;4.422;2023-05-24T10:33:41;19.22;53.22
68943;DHT22;60852;52.190;4.422;2023-05-24T10:36:10;19.18;52.44
68943;DHT22;60852;52.190;4.422;2023-05-24T10:38:37;18.87;52.50
68943;DHT22;60852;52.190;4.422;2023-05-24T10:41:07;18.68;53.77
68943;DHT22;60852;52.190;4.422;2023-05-24T10:43:37;18.60;54.40
68943;DHT22;60852;52.190;4.422;2023-05-24T10:46:04;18.50;53.46
68943;DHT22;60852;52.190;4.422;2023-05-24T10:48:34;18.50;55.56
68943;DHT22;60852;52.190;4.422;2023-05-24T10:51:29;18.36;54.53
68943;DHT22;60852;52.190;4.422;2023-05-24T10:54:19;17.65;56.56
68943;DHT22;60852;52.190;4.422;2023-05-24T10:56:49;17.25;58.57
68943;DHT22;60852;52.190;4.422;2023-05-24T10:59:30;17.10;59.13
68943;DHT22;60852;52.190;4.422;2023-05-24T11:01:59;17.08;59.07
68943;DHT22;60852;52.190;4.422;2023-05-24T11:04:30;17.08;59.84
68943;DHT22;60852;52.190;4.422;2023-05-24T11:07:06;17.07;58.98
68943;DHT22;60852;52.190;4.422;2023-05-24T11:09:37;16.99;60.29
68943;DHT22;60852;52.190;4.422;2023-05-24T11:12:13;16.88;59.21
68943;DHT22;60852;52.190;4.422;2023-05-24T11:14:40;16.84;58.73
68943;DHT22;60852;52.190;4.422;2023-05-24T11:17:10;16.60;59.54
68943;DHT22;60852;52.190;4.422;2023-05-24T11:19:43;16.56;61.42
68943;DHT22;60852;52.190;4.422;2023-05-24T11:22:12;16.69;62.26
68943;DHT22;60852;52.190;4.422;2023-05-24T11:24:40;16.90;59.63
68943;DHT22;60852;52.190;4.422;2023-05-24T11:27:06;16.80;60.21
68943;DHT22;60852;52.190;4.422;2023-05-24T11:29:40;16.76;59.99
68943;DHT22;60852;52.190;4.422;2023-05-24T11:32:05;16.74;61.63
68943;DHT22;60852;52.190;4.422;2023-05-24T11:34:32;16.79;60.51
68943;DHT22;60852;52.190;4.422;2023-05-24T11:37:00;17.07;60.28
68943;DHT22;60852;52.190;4.422;2023-05-24T11:39:33;17.01;58.41
68943;DHT22;60852;52.190;4.422;2023-05-24T11:41:59;16.97;58.11
68943;DHT22;60852;52.190;4.422;2023-05-24T11:44:29;17.04;58.97
68943;DHT22;60852;52.190;4.422;2023-05-24T11:46:59;17.20;55.64
68943;DHT22;60852;52.190;4.422;2023-05-24T11:49:26;17.00;58.01
68943;DHT22;60852;52.190;4.422;2023-05-24T11:51:56;16.88;57.30
68943;DHT22;60852;52.190;4.422;2023-05-24T11:54:23;16.85;60.43
68943;DHT22;60852;52.190;4.422;2023-05-24T11:56:51;16.77;58.06
68943;DHT22;60852;52.190;4.422;2023-05-24T11:59:27;16.79;60.89
68943;DHT22;60852;52.190;4.422;2023-05-24T12:02:03;16.85;61.29
68943;DHT22;60852;52.190;4.422;2023-05-24T12:04:33;16.97;60.98
68943;DHT22;60852;52.190;4.422;2023-05-24T12:06:59;17.22;60.11
68943;DHT22;60852;52.190;4.422;2023-05-24T12:09:26;17.15;59.47
68943;DHT22;60852;52.190;4.422;2023-05-24T12:11:53;17.00;57.61
68943;DHT22;60852;52.190;4.422;2023-05-24T12:14:23;16.55;60.08
68943;DHT22;60852;52.190;4.422;2023-05-24T12:16:54;16.66;61.92
68943;DHT22;60852;52.190;4.422;2023-05-24T12:19:21;16.57;59.84
68943;DHT22;60852;52.190;4.422;2023-05-24T12:21:54;16.55;61.12
68943;DHT22;60852;52.190;4.422;2023-05-24T12:24:22;16.52;59.52
68943;DHT22;60852;52.190;4.422;2023-05-24T12:26:49;16.56;62.06
68943;DHT22;60852;52.190;4.422;2023-05-24T12:29:15;16.67;59.27
68943;DHT22;60852;52.190;4.422;2023-05-24T12:31:48;16.67;60.21
68943;DHT22;60852;52.190;4.422;2023-05-24T12:34:18;16.60;59.32
68943;DHT22;60852;52.190;4.422;2023-05-24T12:36:44;16.66;59.99
68943;DHT22;60852;52.190;4.422;2023-05-24T12:39:26;16.72;58.36
68943;DHT22;60852;52.190;4.422;2023-05-24T12:42:01;16.42;59.06
68943;DHT22;60852;52.190;4.422;2023-05-24T12:44:28;16.52;60.38
68943;DHT22;60852;52.190;4.422;2023-05-24T12:46:55;16.77;59.06
68943;DHT22;60852;52.190;4.422;2023-05-24T12:49:24;16.91;58.27
68943;DHT22;60852;52.190;4.422;2023-05-24T12:51:52;16.90;59.13
68943;DHT22;60852;52.190;4.422;2023-05-24T12:54:22;16.87;58.96
68943;DHT22;60852;52.190;4.422;2023-05-24T12:56:49;16.62;58.92
68943;DHT22;60852;52.190;4.422;2023-05-24T12:59:15;16.63;59.06
68943;DHT22;60852;52.190;4.422;2023-05-24T13:01:41;16.48;60.00
68943;DHT22;60852;52.190;4.422;2023-05-24T13:04:07;16.51;60.69
68943;DHT22;60852;52.190;4.422;2023-05-24T13:06:35;16.69;60.44
68943;DHT22;60852;52.190;4.422;2023-05-24T13:09:01;16.52;58.26
68943;DHT22;60852;52.190;4.422;2023-05-24T13:11:27;16.41;58.19
68943;DHT22;60852;52.190;4.422;2023-05-24T13:13:55;16.25;58.63
68943;DHT22;60852;52.190;4.422;2023-05-24T13:16:22;16.19;59.84
68943;DHT22;60852;52.190;4.422;2023-05-24T13:18:49;16.39;60.24
68943;DHT22;60852;52.190;4.422;2023-05-24T13:21:14;16.57;59.59
68943;DHT22;60852;52.190;4.422;2023-05-24T13:23:41;16.46;59.55
68943;DHT22;60852;52.190;4.422;2023-05-24T13:26:07;16.29;59.42
68943;DHT22;60852;52.190;4.422;2023-05-24T13:28:33;16.38;58.77
68943;DHT22;60852;52.190;4.422;2023-05-24T13:30:59;16.51;57.90
68943;DHT22;60852;52.190;4.422;2023-05-24T13:33:25;16.69;58.25
68943;DHT22;60852;52.190;4.422;2023-05-24T13:35:51;16.72;57.05
68943;DHT22;60852;52.190;4.422;2023-05-24T13:38:19;16.70;57.40
68943;DHT22;60852;52.190;4.422;2023-05-24T13:40:45;16.66;58.87
68943;DHT22;60852;52.190;4.422;2023-05-24T13:43:11;16.73;57.11
68943;DHT22;60852;52.190;4.422;2023-05-24T13:45:37;16.72;57.03
68943;DHT22;60852;52.190;4.422;2023-05-24T13:48:02;16.81;57.26
68943;DHT22;60852;52.190;4.422;2023-05-24T13:50:33;16.80;57.91
68943;DHT22;60852;52.190;4.422;2023-05-24T13:52:59;16.52;58.02
68943;DHT22;60852;52.190;4.422;2023-05-24T13:55:28;16.28;59.16
68943;DHT22;60852;52.190;4.422;2023-05-24T13:57:55;16.29;59.18
68943;DHT22;60852;52.190;4.422;2023-05-24T14:00:22;16.39;59.73
68943;DHT22;60852;52.190;4.422;2023-05-24T14:02:48;16.43;58.12
68943;DHT22;60852;52.190;4.422;2023-05-24T14:05:14;16.30;58.91
68943;DHT22;60852;52.190;4.422;2023-05-24T14:07:39;16.29;60.27
68943;DHT22;60852;52.190;4.422;2023-05-24T14:10:05;16.46;60.08
68943;DHT22;60852;52.190;4.422;2023-05-24T14:12:31;16.43;59.16
68943;DHT22;60852;52.190;4.422;2023-05-24T14:14:57;16.16;60.18
68943;DHT22;60852;52.190;4.422;2023-05-24T14:17:23;15.98;60.92
68943;DHT22;60852;52.190;4.422;2023-05-24T14:19:48;16.18;60.57
68943;DHT22;60852;52.190;4.422;2023-05-24T14:22:14;16.00;60.24
68943;DHT22;60852;52.190;4.422;2023-05-24T14:24:39;15.94;61.01
68943;DHT22;60852;52.190;4.422;2023-05-24T14:27:05;16.12;61.00
68943;DHT22;60852;52.190;4.422;2023-05-24T14:29:31;16.23;60.16
68943;DHT22;60852;52.190;4.422;2023-05-24T14:31:57;16.28;60.60
68943;DHT22;60852;52.190;4.422;2023-05-24T14:34:23;16.42;58.90
68943;DHT22;60852;52.190;4.422;2023-05-24T14:36:48;16.39;59.47
68943;DHT22;60852;52.190;4.422;2023-05-24T14:39:14;16.38;59.62
68943;DHT22;60852;52.190;4.422;2023-05-24T14:41:39;16.32;59.92
68943;DHT22;60852;52.190;4.422;2023-05-24T14:44:05;15.93;60.29
68943;DHT22;60852;52.190;4.422;2023-05-24T14:46:30;15.63;59.96
68943;DHT22;60852;52.190;4.422;2023-05-24T14:48:56;15.37;62.59
68943;DHT22;60852;52.190;4.422;2023-05-24T14:51:21;15.42;63.10
68943;DHT22;60852;52.190;4.422;2023-05-24T14:53:47;15.51;62.60
68943;DHT22;60852;52.190;4.422;2023-05-24T14:56:13;15.65;62.60
68943;DHT22;60852;52.190;4.422;2023-05-24T14:58:41;15.73;62.54
68943;DHT22;60852;52.190;4.422;2023-05-24T15:01:07;15.75;61.43
68943;DHT22;60852;52.190;4.422;2023-05-24T15:03:34;15.73;62.34
68943;DHT22;60852;52.190;4.422;2023-05-24T15:05:59;15.75;62.73
68943;DHT22;60852;52.190;4.422;2023-05-24T15:08:25;15.75;62.16
68943;DHT22;60852;52.190;4.422;2023-05-24T15:10:51;15.40;62.81
68943;DHT22;60852;52.190;4.422;2023-05-24T15:13:16;15.20;63.42
68943;DHT22;60852;52.190;4.422;2023-05-24T15:15:43;15.40;63.35
68943;DHT22;60852;52.190;4.422;2023-05-24T15:18:09;15.54;61.87
68943;DHT22;60852;52.190;4.422;2023-05-24T15:20:34;15.55;63.05
68943;DHT22;60852;52.190;4.422;2023-05-24T15:23:01;15.80;62.66
68943;DHT22;60852;52.190;4.422;2023-05-24T15:25:26;15.77;61.56
68943;DHT22;60852;52.190;4.422;2023-05-24T15:27:52;15.81;62.27
68943;DHT22;60852;52.190;4.422;2023-05-24T15:30:18;15.91;61.88
68943;DHT22;60852;52.190;4.422;2023-05-24T15:32:44;15.81;61.34
68943;DHT22;60852;52.190;4.422;2023-05-24T15:35:12;15.67;62.20
68943;DHT22;60852;52.190;4.422;2023-05-24T15:37:38;15.84;62.08
68943;DHT22;60852;52.190;4.422;2023-05-24T15:40:08;15.90;61.44
68943;DHT22;60852;52.190;4.422;2023-05-24T15:42:35;15.63;61.97
68943;DHT22;60852;52.190;4.422;2023-05-24T15:45:00;15.71;62.61